Time;durP1;ratioP1;P1;durP2;ratioP2;P2;SDS_P1;SDS_P2;PMS_P1;PMS_P2;Temp;Humidity;BMP_temperature;BMP_pressure;BME280_temperature;BME280_humidity;BME280_pressure;Samples;Min_cycle;Max_cycle;Signal;HPM_P1;HPM_P2
2023/04/17 06:12:54;;;;;;;6.13;4.30;;;;;;;;;;5070724;28;20604;-75
2023/04/17 06:22:16;;;;;;;6.80;5.70;;;3.60;99.90;;;;;;5132262;27;20277;-76
2023/04/17 06:28:35;;;;;;;6.77;5.67;;;3.70;99.90;;;;;;5132891;27;20274;-75
2023/04/17 06:33:24;;;;;;;7.50;6.50;;;3.90;99.90;;;;;;5132981;27;20263;-75
2023/04/17 06:38:06;;;;;;;7.27;6.27;;;4.10;99.90;;;;;;5132836;27;20267;-75
2023/04/17 06:40:32;;;;;;;9.00;6.87;;;4.30;99.90;;;;;;5113538;28;20412;-75
2023/04/17 06:42:57;;;;;;;10.53;7.43;;;4.50;99.90;;;;;;5131946;28;20174;-76
2023/04/17 06:45:23;;;;;;;9.43;7.23;;;4.90;99.90;;;;;;5131857;28;20432;-76
2023/04/17 06:47:49;;;;;;;8.20;7.40;;;4.90;99.90;;;;;;5130583;28;20184;-76
2023/04/17 06:50:15;;;;;;;9.03;7.33;;;5.10;99.90;;;;;;5131915;27;20197;-76
2023/04/17 06:52:41;;;;;;;9.70;7.90;;;5.10;99.90;;;;;;5131799;27;20195;-76
2023/04/17 06:56:13;;;;;;;11.70;7.10;;;4.80;99.90;;;;;;5132844;27;20281;-76
2023/04/17 07:00:33;;;;;;;8.70;6.80;;;;;;;;;;5132160;27;20293;-76
2023/04/17 07:02:58;;;;;;;11.43;8.20;;;5.00;99.90;;;;;;5132247;28;20397;-76
2023/04/17 07:05:24;;;;;;;8.50;7.07;;;5.20;99.90;;;;;;5126900;28;20260;-76
2023/04/17 07:07:50;;;;;;;8.80;7.37;;;5.20;99.90;;;;;;5131852;27;20531;-76
2023/04/17 07:10:18;;;;;;;9.37;7.17;;;5.30;99.90;;;;;;5131734;27;20255;-76
2023/04/17 07:12:44;;;;;;;10.23;7.63;;;5.50;99.90;;;;;;5131896;27;20196;-76
2023/04/17 07:15:10;;;;;;;9.50;7.60;;;5.80;99.90;;;;;;5132041;27;20197;-76
2023/04/17 07:17:36;;;;;;;9.03;7.47;;;5.80;99.90;;;;;;5131715;27;20172;-76
2023/04/17 07:20:04;;;;;;;8.23;6.50;;;5.90;99.90;;;;;;5131554;27;20182;-76
2023/04/17 07:22:30;;;;;;;8.23;7.07;;;5.90;99.90;;;;;;5131587;27;20167;-76
2023/04/17 07:24:56;;;;;;;10.30;7.47;;;6.00;99.90;;;;;;5132190;27;20187;-77
2023/04/17 07:27:21;;;;;;;8.47;7.30;;;6.00;99.90;;;;;;5131752;27;20167;-77
2023/04/17 07:29:53;;;;;;;8.27;6.67;;;6.00;99.90;;;;;;5130140;28;20618;-77
2023/04/17 07:32:20;;;;;;;10.57;7.80;;;6.10;99.90;;;;;;5131913;27;20152;-77
2023/04/17 07:34:46;;;;;;;9.30;7.33;;;6.10;99.90;;;;;;5131426;27;20215;-77
2023/04/17 07:37:13;;;;;;;9.33;7.13;;;6.10;99.90;;;;;;5131650;27;20660;-77
2023/04/17 07:39:39;;;;;;;11.07;8.40;;;6.20;99.90;;;;;;5129878;28;20206;-77
2023/04/17 07:42:07;;;;;;;9.43;7.80;;;6.30;99.90;;;;;;5130125;28;20264;-77
2023/04/17 07:44:33;;;;;;;10.80;8.63;;;;;;;;;;5131483;27;20184;-77
2023/04/17 07:46:59;;;;;;;8.90;7.73;;;6.40;99.90;;;;;;5131459;28;20168;-77
2023/04/17 07:49:25;;;;;;;8.70;7.17;;;6.40;99.90;;;;;;5131330;27;20178;-77
2023/04/17 07:51:51;;;;;;;10.50;8.77;;;6.40;99.90;;;;;;5130926;27;20165;-77
2023/04/17 07:54:17;;;;;;;12.83;7.83;;;7.50;99.90;;;;;;5130881;27;20694;-76
2023/04/17 07:56:45;;;;;;;9.53;7.70;;;7.50;99.90;;;;;;5129774;28;20184;-77
2023/04/17 07:59:17;;;;;;;8.57;7.50;;;8.60;99.90;;;;;;5129439;28;20242;-77
2023/04/17 08:01:42;;;;;;;8.33;6.93;;;8.60;99.90;;;;;;5131003;27;20578;-77
2023/04/17 08:04:08;;;;;;;8.60;7.00;;;8.40;99.90;;;;;;5131057;27;20193;-77
2023/04/17 08:06:34;;;;;;;9.67;7.73;;;8.30;99.90;;;;;;5130864;27;20176;-77
2023/04/17 08:09:01;;;;;;;9.60;7.33;;;8.10;99.90;;;;;;5129551;28;20182;-77
2023/04/17 08:11:27;;;;;;;8.23;6.63;;;8.10;99.90;;;;;;5119483;27;20613;-77
2023/04/17 08:13:54;;;;;;;8.43;7.43;;;8.10;99.90;;;;;;5115843;28;20561;-77
2023/04/17 08:16:20;;;;;;;8.03;6.47;;;8.10;99.90;;;;;;5116983;28;20216;-77
2023/04/17 08:18:45;;;;;;;7.20;6.40;;;8.20;99.90;;;;;;5117064;28;20193;-77
2023/04/17 08:21:11;;;;;;;8.03;5.97;;;8.40;99.90;;;;;;5115503;28;20197;-77
2023/04/17 08:23:37;;;;;;;7.57;6.73;;;8.40;99.90;;;;;;5116763;28;20625;-77
2023/04/17 08:26:03;;;;;;;9.87;7.73;;;8.40;99.90;;;;;;5117379;28;20227;-77
2023/04/17 08:28:29;;;;;;;8.20;6.87;;;8.30;99.90;;;;;;5115432;28;20179;-77
2023/04/17 08:30:55;;;;;;;7.47;6.50;;;8.20;99.90;;;;;;5116520;28;20542;-77
2023/04/17 08:33:21;;;;;;;10.03;6.60;;;8.10;99.90;;;;;;5115649;28;20594;-77
2023/04/17 08:35:47;;;;;;;8.77;6.80;;;7.80;99.90;;;;;;5116467;28;20187;-77
2023/04/17 08:38:13;;;;;;;8.33;6.23;;;7.60;99.90;;;;;;5116456;28;20235;-77
2023/04/17 08:40:45;;;;;;;9.93;7.83;;;7.50;99.90;;;;;;5115055;28;20176;-77
2023/04/17 08:43:15;;;;;;;7.97;6.90;;;7.30;99.90;;;;;;5116747;28;20174;-77
2023/04/17 08:56:15;;;;;;;11.40;7.90;;;7.10;99.90;;;;;;5132979;27;20268;-76
2023/04/17 09:04:14;;;;;;;10.50;7.83;;;7.30;99.90;;;;;;5112344;27;21091;-76
2023/04/17 09:11:16;;;;;;;12.30;8.63;;;7.50;99.90;;;;;;5132324;27;20773;-76
2023/04/17 09:14:42;;;;;;;9.27;7.67;;;7.70;99.90;;;;;;5132327;27;20285;-76
2023/04/17 09:17:07;;;;;;;9.27;7.77;;;7.90;99.90;;;;;;5130783;28;20176;-77
2023/04/17 09:19:33;;;;;;;8.33;7.40;;;8.00;99.90;;;;;;5130520;28;20190;-77
2023/04/17 09:22:17;;;;;;;9.57;7.97;;;8.00;99.90;;;;;;5131727;27;20199;-76
2023/04/17 09:24:46;;;;;;;9.03;7.60;;;8.30;99.90;;;;;;5131846;27;20742;-77
2023/04/17 09:27:25;;;;;;;8.40;6.83;;;8.50;99.90;;;;;;5132079;27;20630;-77
2023/04/17 09:30:00;;;;;;;9.43;7.73;;;8.60;99.90;;;;;;5130461;28;20670;-77
2023/04/17 09:32:26;;;;;;;7.97;7.10;;;9.00;99.90;;;;;;5131774;27;20635;-77
2023/04/17 09:34:53;;;;;;;7.93;6.90;;;9.40;99.90;;;;;;5130456;28;20194;-77
2023/04/17 09:37:22;;;;;;;7.70;6.70;;;9.60;99.90;;;;;;5131635;27;20167;-77
2023/04/17 09:39:58;;;;;;;6.93;5.93;;;10.10;99.90;;;;;;5130163;28;20204;-76
2023/04/17 09:42:25;;;;;;;6.73;6.03;;;10.30;99.90;;;;;;5130535;28;20171;-77
2023/04/17 09:44:51;;;;;;;7.30;5.80;;;10.00;99.90;;;;;;5130298;28;20191;-77
2023/04/17 09:47:17;;;;;;;5.50;4.93;;;9.80;99.90;;;;;;5131523;27;20209;-76
2023/04/17 09:49:53;;;;;;;5.07;4.57;;;9.90;99.90;;;;;;5131930;27;20192;-77
2023/04/17 09:52:22;;;;;;;5.27;4.47;;;9.80;99.90;;;;;;5129933;28;20161;-77
2023/04/17 09:54:50;;;;;;;5.63;3.97;;;9.80;99.90;;;;;;5131867;27;20647;-77
2023/04/17 09:57:16;;;;;;;4.90;4.40;;;9.60;99.90;;;;;;5130137;28;20167;-77
2023/04/17 09:59:44;;;;;;;5.10;4.60;;;9.50;99.90;;;;;;5129816;28;20179;-77
2023/04/17 10:02:13;;;;;;;6.00;5.40;;;9.30;99.90;;;;;;5131149;27;20632;-77
2023/04/17 10:04:42;;;;;;;6.27;5.67;;;9.20;99.90;;;;;;5131039;27;20200;-77
2023/04/17 10:07:10;;;;;;;6.67;5.97;;;9.20;99.90;;;;;;5131424;27;20178;-77
2023/04/17 10:09:38;;;;;;;6.20;5.03;;;9.30;99.90;;;;;;5129623;28;20258;-77
2023/04/17 10:12:05;;;;;;;6.53;5.77;;;10.20;99.90;;;;;;5131248;27;20263;-77
2023/04/17 10:14:33;;;;;;;5.57;5.07;;;11.30;99.90;;;;;;5130623;27;20209;-75
2023/04/17 10:16:58;;;;;;;5.63;5.03;;;12.30;99.90;;;;;;5130794;28;20167;-75
2023/04/17 10:19:32;;;;;;;8.40;5.30;;;12.90;99.90;;;;;;5130840;27;20562;-75
2023/04/17 10:22:19;;;;;;;5.50;5.00;;;12.70;99.90;;;;;;5130123;28;20171;-74
2023/04/17 10:24:50;;;;;;;6.10;5.40;;;12.00;99.90;;;;;;5124322;27;20305;-74
2023/04/17 10:27:25;;;;;;;5.90;5.40;;;11.40;99.90;;;;;;5116042;28;20172;-75
2023/04/17 10:30:11;;;;;;;5.77;5.27;;;11.80;99.90;;;;;;5116742;28;20164;-75
2023/04/17 10:32:41;;;;;;;5.87;5.27;;;12.60;99.90;;;;;;5116807;28;20179;-75
2023/04/17 10:35:16;;;;;;;6.40;5.80;;;12.10;99.90;;;;;;5116662;28;20549;-75
2023/04/17 10:37:49;;;;;;;6.20;5.60;;;11.40;99.90;;;;;;5115503;28;20220;-75
2023/04/17 10:40:44;;;;;;;6.37;5.77;;;11.80;99.90;;;;;;5115467;28;20541;-76
2023/04/17 10:43:19;;;;;;;5.80;5.00;;;12.30;99.90;;;;;;5107849;28;20262;-76
2023/04/17 10:46:02;;;;;;;6.33;5.73;;;12.20;99.90;;;;;;5116895;28;20186;-76
2023/04/17 10:48:50;;;;;;;6.53;5.87;;;11.70;99.90;;;;;;5115314;28;20175;-75
2023/04/17 10:51:28;;;;;;;5.47;4.97;;;11.20;99.90;;;;;;5116592;27;20176;-78
2023/04/17 10:53:53;;;;;;;6.10;5.50;;;10.90;99.90;;;;;;5117175;28;20209;-78
2023/04/17 10:56:25;;;;;;;5.60;5.07;;;10.60;99.90;;;;;;5116235;28;20532;-77
2023/04/17 10:58:57;;;;;;;5.60;5.10;;;10.40;99.90;;;;;;5116171;27;20167;-78
2023/04/17 11:01:48;;;;;;;6.53;5.93;;;10.30;99.90;;;;;;5115425;28;20637;-78
2023/04/17 11:04:27;;;;;;;5.60;5.10;;;10.10;99.90;;;;;;5115132;28;20251;-78
2023/04/17 11:06:54;;;;;;;5.60;4.90;;;10.30;99.90;;;;;;5116280;28;20541;-77
2023/04/17 11:09:21;;;;;;;5.87;5.37;;;10.60;99.90;;;;;;5114955;28;20175;-77
2023/04/17 11:11:46;;;;;;;6.93;5.03;;;10.70;99.90;;;;;;5116055;28;20215;-78
2023/04/17 11:14:14;;;;;;;7.60;5.57;;;10.80;99.90;;;;;;5114535;28;20242;-77
2023/04/17 11:16:42;;;;;;;6.27;4.83;;;10.80;99.90;;;;;;5116080;28;20172;-77
2023/04/17 11:19:15;;;;;;;5.53;5.03;;;10.80;99.90;;;;;;5115956;28;20250;-77
2023/04/17 11:21:42;;;;;;;6.83;4.60;;;10.80;99.90;;;;;;5115956;28;20698;-77
2023/04/17 11:24:08;;;;;;;4.90;4.40;;;10.80;99.90;;;;;;5115933;28;20191;-77
2023/04/17 11:26:45;;;;;;;5.30;4.80;;;10.90;99.90;;;;;;5115961;28;20268;-77
2023/04/17 11:29:18;;;;;;;6.80;5.93;;;11.00;99.90;;;;;;5115883;28;20551;-77
2023/04/17 11:31:45;;;;;;;5.77;5.13;;;10.80;99.90;;;;;;5115736;28;20172;-78
2023/04/17 11:34:15;;;;;;;5.97;5.30;;;10.70;99.90;;;;;;5114243;28;20207;-77
2023/04/17 11:36:48;;;;;;;7.83;5.60;;;10.70;99.90;;;;;;5114748;28;20191;-77
2023/04/17 11:39:14;;;;;;;6.13;5.00;;;11.00;99.90;;;;;;5115779;28;20156;-77
2023/04/17 11:41:41;;;;;;;6.33;5.13;;;11.60;99.90;;;;;;5115682;28;20567;-75
2023/04/17 11:44:15;;;;;;;6.67;6.00;;;11.80;99.90;;;;;;5114186;28;20281;-75
2023/04/17 11:46:41;;;;;;;5.20;4.60;;;11.50;99.90;;;;;;5114150;28;20175;-75
2023/04/17 11:49:08;;;;;;;6.47;5.30;;;11.20;99.90;;;;;;5114740;28;20197;-77
2023/04/17 11:51:35;;;;;;;6.07;5.47;;;11.00;99.90;;;;;;5115200;28;20182;-77
2023/04/17 11:54:01;;;;;;;6.03;5.43;;;10.90;99.90;;;;;;5115366;28;20223;-77
2023/04/17 11:56:29;;;;;;;5.50;4.90;;;10.80;99.90;;;;;;5115336;28;20167;-77
2023/04/17 11:58:57;;;;;;;7.40;5.00;;;10.70;99.90;;;;;;5115285;28;20675;-77
2023/04/17 12:01:24;;;;;;;5.67;5.17;;;10.70;99.90;;;;;;5113781;28;20183;-77
2023/04/17 12:03:51;;;;;;;5.97;5.00;;;10.70;99.90;;;;;;5113868;28;20192;-77
2023/04/17 12:06:17;;;;;;;5.60;5.00;;;10.90;99.90;;;;;;5115016;28;20171;-77
2023/04/17 12:08:54;;;;;;;5.40;4.70;;;11.30;99.90;;;;;;5115371;28;20534;-77
2023/04/17 12:11:31;;;;;;;5.07;4.57;;;11.60;99.90;;;;;;5114864;28;20175;-77
2023/04/17 12:13:58;;;;;;;4.90;4.43;;;11.70;99.90;;;;;;5114707;28;20286;-77
2023/04/17 12:16:25;;;;;;;7.90;5.10;;;11.40;99.90;;;;;;5113713;28;20167;-77
2023/04/17 12:18:51;;;;;;;5.80;5.20;;;11.00;99.90;;;;;;5115176;28;20625;-77
2023/04/17 12:21:19;;;;;;;7.17;6.47;;;10.80;99.90;;;;;;5114665;28;20163;-77
2023/04/17 12:23:45;;;;;;;8.00;5.90;;;10.50;99.90;;;;;;5114672;28;20163;-77
2023/04/17 12:26:11;;;;;;;7.03;5.33;;;10.30;99.90;;;;;;5114672;28;20172;-77
2023/04/17 12:28:37;;;;;;;5.27;4.77;;;10.40;99.90;;;;;;5113524;28;20198;-77
2023/04/17 12:31:03;;;;;;;5.77;4.80;;;11.00;99.90;;;;;;5115031;28;20172;-77
2023/04/17 12:33:30;;;;;;;5.13;4.63;;;11.70;99.90;;;;;;5114806;28;20693;-77
2023/04/17 12:35:55;;;;;;;5.87;5.00;;;12.40;99.90;;;;;;5115612;28;20171;-77
2023/04/17 12:38:22;;;;;;;6.13;4.60;;;13.40;99.90;;;;;;5113538;28;20179;-77
2023/04/17 12:40:48;;;;;;;4.87;4.20;;;15.00;99.90;;;;;;5114769;28;20208;-78
2023/04/17 12:43:14;;;;;;;4.53;4.13;;;16.20;99.90;;;;;;5114812;28;20167;-77
2023/04/17 12:45:41;;;;;;;4.40;4.00;;;16.60;99.90;;;;;;5114506;28;20668;-77
2023/04/17 12:48:07;;;;;;;5.70;5.10;;;15.70;99.90;;;;;;5112963;28;20194;-77
2023/04/17 12:50:41;;;;;;;4.40;4.00;;;14.40;99.90;;;;;;5114100;28;20183;-77
2023/04/17 12:53:11;;;;;;;5.03;4.50;;;13.40;99.90;;;;;;5114589;28;20190;-77
2023/04/17 12:55:38;;;;;;;5.13;4.63;;;12.50;99.90;;;;;;5114450;28;20187;-77
2023/04/17 12:58:12;;;;;;;4.87;4.47;;;12.50;99.90;;;;;;5114250;28;20175;-77
2023/04/17 13:00:42;;;;;;;5.20;4.70;;;12.60;99.90;;;;;;5112867;28;20170;-78
2023/04/17 13:03:07;;;;;;;6.00;5.40;;;14.40;99.90;;;;;;5114151;28;20174;-77
2023/04/17 13:05:33;;;;;;;4.77;4.37;;;16.20;99.90;;;;;;5114056;28;20676;-77
2023/04/17 13:07:59;;;;;;;5.43;4.93;;;16.10;99.90;;;;;;5114222;28;20507;-77
2023/04/17 13:10:25;;;;;;;12.20;5.60;;;16.30;99.90;;;;;;5113803;28;20179;-77
2023/04/17 13:12:50;;;;;;;7.63;5.47;;;15.50;99.90;;;;;;5113863;28;20200;-77
2023/04/17 13:15:16;;;;;;;4.77;4.27;;;14.20;99.90;;;;;;5114026;28;20193;-77
2023/04/17 13:17:42;;;;;;;5.70;4.20;;;14.30;99.90;;;;;;5112507;28;20175;-77
2023/04/17 13:20:09;;;;;;;4.40;4.00;;;15.60;99.90;;;;;;5113963;28;20638;-78
2023/04/17 13:22:35;;;;;;;4.73;3.77;;;15.90;99.90;;;;;;5114074;28;20173;-78
2023/04/17 13:25:04;;;;;;;4.07;3.73;;;16.50;99.90;;;;;;5114525;28;20188;-78
2023/04/17 13:27:30;;;;;;;4.60;4.20;;;17.20;99.90;;;;;;5115521;28;20185;-78
2023/04/17 13:29:56;;;;;;;5.47;4.03;;;17.60;99.90;;;;;;5113349;28;20174;-77
2023/04/17 13:32:22;;;;;;;5.10;4.60;;;18.20;99.90;;;;;;5114222;28;20245;-78
2023/04/17 13:34:48;;;;;;;5.23;4.77;;;18.90;98.40;;;;;;5113222;28;20218;-77
2023/04/17 13:37:14;;;;;;;4.83;4.33;;;19.30;96.80;;;;;;5113819;28;20216;-77
2023/04/17 13:39:40;;;;;;;6.50;4.77;;;18.70;95.40;;;;;;5113714;28;20186;-77
2023/04/17 13:42:06;;;;;;;4.57;4.17;;;16.90;97.40;;;;;;5114229;28;20175;-77
2023/04/17 13:44:32;;;;;;;5.33;4.83;;;15.10;99.90;;;;;;5112378;28;20214;-76
2023/04/17 13:46:58;;;;;;;5.27;4.53;;;14.30;99.90;;;;;;5113692;28;20629;-76
2023/04/17 13:49:26;;;;;;;5.40;4.90;;;15.60;99.90;;;;;;5114070;28;20168;-77
2023/04/17 13:51:51;;;;;;;4.60;4.20;;;16.90;99.90;;;;;;5113652;28;20644;-79
2023/04/17 13:54:17;;;;;;;5.10;4.60;;;17.00;97.10;;;;;;5114502;28;20204;-76
2023/04/17 13:56:44;;;;;;;6.20;4.50;;;15.60;99.90;;;;;;5113876;28;20175;-79
2023/04/17 13:59:10;;;;;;;5.03;3.97;;;16.00;99.90;;;;;;5115054;28;20171;-80
2023/04/17 14:01:36;;;;;;;4.70;4.20;;;16.50;99.90;;;;;;5119167;27;20221;-78
2023/04/17 14:04:02;;;;;;;4.70;4.20;;;17.60;99.10;;;;;;5117303;28;20198;-78
2023/04/17 14:06:28;;;;;;;4.23;3.83;;;18.70;96.20;;;;;;5117835;28;20258;-77
2023/04/17 14:08:57;;;;;;;4.10;3.70;;;17.30;94.30;;;;;;5117259;28;20175;-77
2023/04/17 14:11:23;;;;;;;4.50;3.53;;;15.50;97.60;;;;;;5117682;28;20264;-77
2023/04/17 14:13:50;;;;;;;3.90;3.60;;;14.10;99.90;;;;;;5117424;28;20257;-78
2023/04/17 14:16:17;;;;;;;4.63;3.90;;;13.20;99.90;;;;;;5117578;28;20195;-78
2023/04/17 14:18:48;;;;;;;5.00;4.07;;;12.50;99.90;;;;;;5116241;28;20237;-78
2023/04/17 14:21:15;;;;;;;3.63;3.33;;;14.00;99.90;;;;;;5117548;28;20176;-78
2023/04/17 14:23:41;;;;;;;4.40;3.93;;;15.90;99.90;;;;;;5117414;28;20168;-78
2023/04/17 14:26:07;;;;;;;6.20;3.60;;;17.50;98.20;;;;;;5117423;28;20181;-78
2023/04/17 14:28:33;;;;;;;4.40;4.00;;;18.00;96.80;;;;;;5116722;28;20215;-78
2023/04/17 14:30:58;;;;;;;5.00;3.60;;;17.50;94.20;;;;;;5116490;28;20513;-77
2023/04/17 14:33:24;;;;;;;4.03;3.63;;;16.80;96.20;;;;;;5117321;28;20211;-77
2023/04/17 14:35:52;;;;;;;4.30;3.90;;;16.50;97.20;;;;;;5116698;28;20193;-77
2023/04/17 14:38:18;;;;;;;4.00;3.60;;;16.70;97.60;;;;;;5117002;28;20162;-77
2023/04/17 14:40:44;;;;;;;5.50;3.90;;;17.20;92.90;;;;;;5117027;28;20227;-78
2023/04/17 14:43:10;;;;;;;8.07;4.30;;;17.80;93.10;;;;;;5117323;28;20179;-77
2023/04/17 14:45:36;;;;;;;6.27;3.90;;;18.00;94.40;;;;;;5117594;28;20190;-78
2023/04/17 14:48:02;;;;;;;4.37;3.97;;;17.30;93.70;;;;;;5116591;28;20174;-77
2023/04/17 14:50:28;;;;;;;4.07;3.77;;;16.00;94.10;;;;;;5115105;28;20177;-77
2023/04/17 14:52:54;;;;;;;4.70;4.30;;;14.90;97.20;;;;;;5115959;28;20196;-77
2023/04/17 14:55:23;;;;;;;4.30;3.90;;;14.20;98.60;;;;;;5114698;28;20240;-77
2023/04/17 14:57:49;;;;;;;4.43;4.03;;;14.10;98.00;;;;;;5115782;28;20215;-77
2023/04/17 15:00:15;;;;;;;4.83;4.43;;;13.20;99.90;;;;;;5116331;28;20172;-77
2023/04/17 15:02:41;;;;;;;4.30;3.80;;;12.90;99.90;;;;;;5116255;28;20168;-78
2023/04/17 15:05:07;;;;;;;4.60;4.20;;;14.50;99.90;;;;;;5116499;28;20613;-79
2023/04/17 15:07:34;;;;;;;5.07;4.57;;;16.10;99.90;;;;;;5118889;28;20176;-77
2023/04/17 15:09:59;;;;;;;4.17;3.80;;;17.50;95.10;;;;;;5116596;28;20164;-78
2023/04/17 15:12:26;;;;;;;8.37;4.80;;;18.40;92.90;;;;;;5115752;28;20169;-77
2023/04/17 15:14:51;;;;;;;4.87;3.63;;;17.80;92.30;;;;;;5116571;28;20276;-77
2023/04/17 15:17:17;;;;;;;5.47;4.13;;;16.00;96.90;;;;;;5118035;28;20203;-77
2023/04/17 15:19:43;;;;;;;4.43;4.03;;;13.80;99.90;;;;;;5115810;28;20230;-78
2023/04/17 15:22:09;;;;;;;4.10;3.70;;;12.50;99.90;;;;;;5117679;28;20231;-77
2023/04/17 15:24:34;;;;;;;4.17;3.87;;;11.80;99.90;;;;;;5116064;27;20644;-77
2023/04/17 15:27:00;;;;;;;3.87;3.57;;;11.30;99.90;;;;;;5115606;28;20175;-79
2023/04/17 15:29:26;;;;;;;4.67;3.53;;;11.00;99.90;;;;;;5116573;28;20190;-78
2023/04/17 15:31:52;;;;;;;4.53;3.63;;;10.80;99.90;;;;;;5116412;28;20514;-78
2023/04/17 15:34:18;;;;;;;5.63;5.03;;;10.70;99.90;;;;;;5115697;28;20221;-78
2023/04/17 15:36:44;;;;;;;4.13;3.73;;;10.50;99.90;;;;;;5114970;28;20183;-77
2023/04/17 15:39:10;;;;;;;4.27;3.87;;;10.40;99.90;;;;;;5116045;28;20280;-78
2023/04/17 15:41:38;;;;;;;9.00;3.50;;;10.40;99.90;;;;;;5115457;28;20690;-77
2023/04/17 15:44:04;;;;;;;6.83;5.10;;;10.40;99.90;;;;;;5115833;28;20187;-77
2023/04/17 15:46:31;;;;;;;4.30;3.90;;;10.30;99.90;;;;;;5116318;28;20259;-78
2023/04/17 15:49:45;;;;;;;8.63;4.27;;;10.40;99.90;;;;;;5136041;27;20752;-77
2023/04/17 15:52:10;;;;;;;5.37;4.43;;;10.40;99.90;;;;;;5132124;28;20626;-77
2023/04/17 15:54:36;;;;;;;4.50;3.90;;;10.30;99.90;;;;;;5131847;28;20186;-78
2023/04/17 15:57:01;;;;;;;5.63;4.50;;;10.30;99.90;;;;;;5131958;27;20685;-77
2023/04/17 15:59:27;;;;;;;4.17;3.77;;;10.60;99.90;;;;;;5130609;28;20181;-77
2023/04/17 16:01:53;;;;;;;4.00;3.60;;;10.90;99.90;;;;;;5131897;27;20206;-77
2023/04/17 16:04:18;;;;;;;4.43;4.00;;;11.10;99.90;;;;;;5131660;27;20190;-77
2023/04/17 16:06:45;;;;;;;4.40;3.50;;;11.20;99.90;;;;;;5131958;28;20171;-78
2023/04/17 16:09:11;;;;;;;3.57;3.27;;;11.40;99.90;;;;;;5131635;28;20198;-78
2023/04/17 16:11:37;;;;;;;3.77;3.17;;;11.50;99.90;;;;;;5131906;27;20636;-78
2023/04/17 16:14:02;;;;;;;4.90;3.43;;;11.30;99.90;;;;;;5132489;27;20194;-78
2023/04/17 16:16:28;;;;;;;6.03;3.70;;;11.20;99.90;;;;;;5131737;27;20264;-78
2023/04/17 16:18:54;;;;;;;3.67;3.37;;;11.10;99.90;;;;;;5130442;28;20174;-77
2023/04/17 16:21:20;;;;;;;3.77;3.37;;;11.00;99.90;;;;;;5133957;28;20566;-80
2023/04/17 16:23:48;;;;;;;3.90;3.50;;;11.00;99.90;;;;;;5137873;27;20178;-80
2023/04/17 16:26:14;;;;;;;3.83;3.53;;;11.00;99.90;;;;;;5137663;27;20238;-79
2023/04/17 16:28:39;;;;;;;4.17;3.53;;;10.90;99.90;;;;;;5139921;28;20222;-79
2023/04/17 16:31:05;;;;;;;3.47;3.17;;;10.90;99.90;;;;;;5140473;27;20274;-79
2023/04/17 16:33:33;;;;;;;3.30;3.10;;;10.80;99.90;;;;;;5140160;27;20566;-79
2023/04/17 16:36:00;;;;;;;3.67;3.27;;;10.70;99.90;;;;;;5139494;28;20182;-80
2023/04/17 16:38:26;;;;;;;3.93;3.50;;;10.70;99.90;;;;;;5139106;28;20171;-79
2023/04/17 16:40:55;;;;;;;4.40;4.00;;;10.80;99.90;;;;;;5139227;28;20181;-78
2023/04/17 16:43:21;;;;;;;7.27;4.33;;;10.70;99.90;;;;;;5139609;28;20179;-79
2023/04/17 16:45:47;;;;;;;5.37;4.87;;;10.80;99.90;;;;;;5135976;28;20259;-79
2023/04/17 16:48:13;;;;;;;5.07;4.57;;;10.70;99.90;;;;;;5137872;27;20207;-79
2023/04/17 16:50:38;;;;;;;5.03;4.50;;;10.50;99.90;;;;;;5138594;27;20164;-79
2023/04/17 16:53:04;;;;;;;4.63;4.13;;;10.50;99.90;;;;;;5137464;28;20217;-78
2023/04/17 16:55:30;;;;;;;4.20;3.80;;;10.40;99.90;;;;;;5136817;28;20195;-79
2023/04/17 16:57:58;;;;;;;5.63;4.50;;;10.40;99.90;;;;;;5136522;28;20175;-79
2023/04/17 17:00:24;;;;;;;4.70;4.30;;;10.40;99.90;;;;;;5126834;28;20175;-79
2023/04/17 17:02:50;;;;;;;5.00;4.53;;;10.30;99.90;;;;;;5124400;28;20240;-78
2023/04/17 17:05:15;;;;;;;8.43;5.00;;;10.20;99.90;;;;;;5125032;28;20192;-79
2023/04/17 17:07:41;;;;;;;5.03;4.50;;;10.20;99.90;;;;;;5124510;28;20242;-79
2023/04/17 17:10:07;;;;;;;4.97;4.47;;;10.00;99.90;;;;;;5124898;28;20171;-79
2023/04/17 17:12:33;;;;;;;4.80;4.07;;;9.90;99.90;;;;;;5124955;28;20243;-79
2023/04/17 17:14:59;;;;;;;6.50;3.93;;;10.00;99.90;;;;;;5124779;28;20232;-78
2023/04/17 17:17:24;;;;;;;4.47;4.07;;;9.90;99.90;;;;;;5124478;27;20163;-78
2023/04/17 17:19:50;;;;;;;4.80;4.30;;;9.80;99.90;;;;;;5121471;28;20266;-79
2023/04/17 17:22:16;;;;;;;5.17;4.67;;;9.80;99.90;;;;;;5121181;28;20172;-78
2023/04/17 17:24:41;;;;;;;5.93;4.60;;;9.60;99.90;;;;;;5121526;28;20552;-78
2023/04/17 17:27:07;;;;;;;5.77;5.17;;;9.50;99.90;;;;;;5120892;28;20174;-78
2023/04/17 17:29:33;;;;;;;5.53;4.90;;;9.40;99.90;;;;;;5118130;28;20279;-78
2023/04/17 17:38:43;;;;;;;5.33;4.77;;;9.30;99.90;;;;;;5142308;27;20267;-80
